Time;durP1;ratioP1;P1;durP2;ratioP2;P2;SDS_P1;SDS_P2;PMS_P1;PMS_P2;Temp;Humidity;BMP_temperature;BMP_pressure;BME280_temperature;BME280_humidity;BME280_pressure;Samples;Min_cycle;Max_cycle;Signal;HPM_P1;HPM_P2
2022/08/27 00:01:07;;;;;;;19.83;10.13;;;;;;;;;;3366359;42;20131;-62
2022/08/27 00:03:34;;;;;;;19.27;9.50;;;;;;;;;;3365777;42;20580;-62
2022/08/27 00:05:59;;;;;;;21.33;10.32;;;;;;;;;;3366424;42;20099;-61
2022/08/27 00:08:25;;;;;;;24.47;9.97;;;;;;;;;;3366383;42;20176;-62
2022/08/27 00:10:51;;;;;;;20.73;10.18;;;;;;;;;;3366279;42;20092;-60
2022/08/27 00:13:17;;;;;;;20.27;9.80;;;;;;;;;;3365897;42;20104;-61
2022/08/27 00:15:43;;;;;;;22.10;9.93;;;;;;;;;;3366279;42;20170;-61
2022/08/27 00:18:09;;;;;;;23.13;10.10;;;;;;;;;;3366386;42;20114;-61
2022/08/27 00:20:35;;;;;;;21.23;9.20;;;;;;;;;;3366081;42;20553;-62
2022/08/27 00:23:01;;;;;;;20.80;10.25;;;;;;;;;;3366013;42;20091;-62
2022/08/27 00:25:27;;;;;;;23.93;10.57;;;;;;;;;;3366295;42;20100;-60
2022/08/27 00:27:53;;;;;;;21.80;10.75;;;;;;;;;;3365848;42;20079;-61
2022/08/27 00:30:20;;;;;;;20.77;9.82;;;;;;;;;;3366224;42;20096;-61
2022/08/27 00:32:46;;;;;;;22.40;10.40;;;;;;;;;;3364979;42;20091;-61
2022/08/27 00:35:13;;;;;;;21.53;10.43;;;;;;;;;;3364809;42;20099;-61
2022/08/27 00:37:39;;;;;;;22.98;10.85;;;;;;;;;;3366326;42;20115;-61
2022/08/27 00:40:07;;;;;;;22.70;10.50;;;;;;;;;;3364626;42;20682;-60
2022/08/27 00:42:33;;;;;;;22.45;11.20;;;;;;;;;;3356997;42;20148;-61
2022/08/27 00:44:59;;;;;;;21.70;10.65;;;;;;;;;;3366304;42;20084;-58
2022/08/27 00:47:27;;;;;;;21.47;10.63;;;;;;;;;;3365976;42;20563;-60
2022/08/27 00:49:58;;;;;;;23.40;10.90;;;;;;;;;;3364760;42;20088;-62
2022/08/27 00:52:29;;;;;;;20.05;10.18;;;;;;;;;;3366249;42;20135;-61
2022/08/27 00:55:02;;;;;;;23.95;11.20;;;;;;;;;;3367093;42;20211;-61
2022/08/27 00:57:28;;;;;;;22.70;10.73;;;;;;;;;;3366195;42;20084;-60
2022/08/27 00:59:54;;;;;;;23.87;10.70;;;;;;;;;;3366438;42;20091;-60
2022/08/27 01:02:20;;;;;;;22.65;10.80;;;;;;;;;;3365959;42;20088;-60
2022/08/27 01:04:55;;;;;;;21.15;10.95;;;;;;;;;;3367724;42;20157;-60
2022/08/27 01:07:21;;;;;;;22.45;10.75;;;;;;;;;;3366018;42;20131;-60
2022/08/27 01:09:47;;;;;;;26.43;10.90;;;;;;;;;;3365890;42;20659;-60
2022/08/27 01:12:13;;;;;;;23.52;10.55;;;;;;;;;;3365902;42;20080;-61
2022/08/27 01:14:40;;;;;;;21.45;9.80;;;;;;;;;;3365679;42;20156;-61
2022/08/27 01:17:07;;;;;;;22.08;10.45;;;;;;;;;;3366216;42;20542;-60
2022/08/27 01:19:46;;;;;;;22.63;10.35;;;;;;;;;;3365971;42;20088;-61
2022/08/27 01:22:28;;;;;;;21.73;10.47;;;;;;;;;;3359958;42;20088;-61
2022/08/27 01:24:55;;;;;;;20.70;10.27;;;;;;;;;;3366791;42;20092;-61
2022/08/27 01:27:24;;;;;;;22.60;11.25;;;;;;;;;;3358599;42;20147;-62
2022/08/27 01:29:50;;;;;;;23.35;11.27;;;;;;;;;;3359200;42;20099;-62
2022/08/27 01:32:22;;;;;;;22.52;10.70;;;;;;;;;;3365679;42;20076;-62
2022/08/27 01:34:48;;;;;;;21.43;10.20;;;;;;;;;;3367094;42;20102;-62
2022/08/27 01:37:15;;;;;;;22.42;10.48;;;;;;;;;;3366980;42;20569;-61
2022/08/27 01:39:41;;;;;;;20.55;10.43;;;;;;;;;;3366755;42;20139;-62
2022/08/27 01:42:18;;;;;;;21.20;10.90;;;;;;;;;;3365421;42;20098;-61
2022/08/27 01:44:49;;;;;;;24.92;11.13;;;;;;;;;;3365651;42;20169;-62
2022/08/27 01:47:16;;;;;;;21.73;10.50;;;;;;;;;;3365455;42;20098;-64
2022/08/27 01:49:42;;;;;;;26.25;11.05;;;;;;;;;;3367365;42;20922;-61
2022/08/27 01:52:08;;;;;;;24.35;11.07;;;;;;;;;;3366142;42;20096;-61
2022/08/27 01:54:34;;;;;;;24.13;11.10;;;;;;;;;;3367326;42;20092;-60
2022/08/27 01:57:00;;;;;;;22.23;10.97;;;;;;;;;;3367310;42;20174;-61
2022/08/27 01:59:26;;;;;;;24.15;10.25;;;;;;;;;;3366973;42;20091;-60
2022/08/27 02:01:52;;;;;;;21.70;10.52;;;;;;;;;;3366278;42;20526;-61
2022/08/27 02:04:18;;;;;;;22.02;10.35;;;;;;;;;;3365449;42;20217;-61
2022/08/27 02:06:44;;;;;;;24.50;10.57;;;;;;;;;;3367309;42;20863;-61
2022/08/27 02:09:10;;;;;;;22.58;10.88;;;;;;;;;;3367389;42;20102;-61
2022/08/27 02:11:36;;;;;;;24.58;11.35;;;;;;;;;;3367073;42;20985;-62
2022/08/27 02:14:03;;;;;;;21.67;10.68;;;;;;;;;;3367224;42;20119;-62
2022/08/27 02:16:31;;;;;;;21.80;11.13;;;;;;;;;;3365945;42;20095;-60
2022/08/27 02:18:58;;;;;;;22.80;11.27;;;;;;;;;;3367259;42;20139;-61
2022/08/27 02:21:24;;;;;;;20.65;10.38;;;;;;;;;;3367120;42;20227;-61
2022/08/27 02:23:50;;;;;;;28.23;11.05;;;;;;;;;;3366891;42;20648;-62
2022/08/27 02:26:16;;;;;;;21.88;10.68;;;;;;;;;;3367161;42;20552;-62
2022/08/27 02:28:42;;;;;;;22.07;10.97;;;;;;;;;;3367282;42;20080;-60
2022/08/27 02:31:09;;;;;;;21.85;10.63;;;;;;;;;;3367027;42;20111;-62
2022/08/27 02:33:35;;;;;;;22.38;10.60;;;;;;;;;;3366919;42;20139;-60
2022/08/27 02:36:01;;;;;;;20.88;10.63;;;;;;;;;;3365870;42;20108;-61
2022/08/27 02:38:28;;;;;;;23.53;11.00;;;;;;;;;;3366861;42;20103;-61
2022/08/27 02:40:54;;;;;;;25.70;12.07;;;;;;;;;;3366768;42;20470;-62
2022/08/27 02:43:20;;;;;;;23.90;11.10;;;;;;;;;;3366726;42;20692;-61
2022/08/27 02:45:47;;;;;;;20.45;10.95;;;;;;;;;;3366976;42;20133;-61
2022/08/27 02:48:13;;;;;;;24.43;11.37;;;;;;;;;;3367782;42;20110;-61
2022/08/27 02:50:39;;;;;;;22.27;11.02;;;;;;;;;;3365522;42;20096;-62
2022/08/27 02:53:05;;;;;;;22.10;11.10;;;;;;;;;;3366752;42;20091;-63
2022/08/27 02:55:31;;;;;;;40.95;11.77;;;;;;;;;;3365247;42;20470;-63
2022/08/27 02:57:57;;;;;;;28.50;10.60;;;;;;;;;;3366887;42;20104;-62
2022/08/27 03:00:24;;;;;;;23.10;10.90;;;;;;;;;;3366684;42;20106;-61
2022/08/27 03:02:50;;;;;;;25.13;11.13;;;;;;;;;;3366536;42;20143;-63
2022/08/27 03:05:17;;;;;;;22.08;11.13;;;;;;;;;;3366437;42;20183;-62
2022/08/27 03:07:43;;;;;;;24.25;10.95;;;;;;;;;;3366670;42;20539;-62
2022/08/27 03:10:10;;;;;;;21.60;11.70;;;;;;;;;;3365048;42;20174;-62
2022/08/27 03:12:36;;;;;;;19.10;10.37;;;;;;;;;;3366396;42;20135;-61
2022/08/27 03:15:05;;;;;;;23.48;11.65;;;;;;;;;;3366468;42;20189;-61
2022/08/27 03:20:16;;;;;;;20.08;11.15;;;;;;;;;;3366573;42;20087;-63
2022/08/27 03:22:42;;;;;;;23.42;12.25;;;;;;;;;;3366276;42;20223;-61
2022/08/27 03:25:08;;;;;;;22.57;11.63;;;;;;;;;;3366238;42;20100;-61
2022/08/27 03:27:34;;;;;;;24.23;11.90;;;;;;;;;;3366332;42;20091;-62
2022/08/27 03:30:04;;;;;;;21.50;11.50;;;;;;;;;;3366155;42;20131;-61
2022/08/27 03:32:30;;;;;;;20.65;11.25;;;;;;;;;;3366463;42;20096;-61
2022/08/27 03:34:57;;;;;;;21.27;11.25;;;;;;;;;;3364794;42;20103;-63
2022/08/27 03:37:23;;;;;;;23.70;11.73;;;;;;;;;;3366148;42;20090;-61
2022/08/27 03:39:49;;;;;;;32.00;12.98;;;;;;;;;;3364624;42;20509;-62
2022/08/27 03:42:15;;;;;;;23.60;10.70;;;;;;;;;;3366035;42;20626;-62
2022/08/27 03:44:41;;;;;;;18.90;10.35;;;;;;;;;;3367141;42;20103;-59
2022/08/27 03:47:07;;;;;;;17.93;10.03;;;;;;;;;;3366101;42;20557;-63
2022/08/27 03:49:33;;;;;;;25.33;11.73;;;;;;;;;;3366289;42;20656;-61
2022/08/27 03:51:59;;;;;;;23.15;11.98;;;;;;;;;;3366367;42;20585;-60
2022/08/27 03:54:25;;;;;;;24.15;12.20;;;;;;;;;;3364883;42;20092;-60
2022/08/27 03:56:51;;;;;;;27.50;12.40;;;;;;;;;;3366213;42;20513;-61
2022/08/27 03:59:17;;;;;;;25.50;13.73;;;;;;;;;;3366240;42;20497;-61
2022/08/27 04:01:44;;;;;;;31.98;14.40;;;;;;;;;;3364617;42;20490;-60
2022/08/27 04:04:11;;;;;;;31.43;14.20;;;;;;;;;;3366275;42;20167;-62
2022/08/27 04:06:38;;;;;;;26.73;13.82;;;;;;;;;;3362573;42;20087;-62
2022/08/27 04:09:04;;;;;;;30.75;13.95;;;;;;;;;;3364780;42;20207;-63
2022/08/27 04:11:32;;;;;;;27.92;14.38;;;;;;;;;;3362768;42;20096;-62
2022/08/27 04:13:59;;;;;;;28.70;15.55;;;;;;;;;;3360465;42;20656;-61
2022/08/27 04:16:25;;;;;;;35.87;15.23;;;;;;;;;;3361134;42;20084;-63
2022/08/27 04:18:54;;;;;;;32.33;15.75;;;;;;;;;;3361687;42;20080;-60
2022/08/27 04:21:21;;;;;;;32.72;16.05;;;;;;;;;;3361223;42;20140;-60
2022/08/27 04:23:47;;;;;;;31.25;15.65;;;;;;;;;;3361979;42;20131;-62
2022/08/27 04:26:14;;;;;;;31.95;17.25;;;;;;;;;;3366603;42;20103;-61
2022/08/27 04:28:40;;;;;;;35.43;17.00;;;;;;;;;;3367354;42;20322;-61
2022/08/27 04:31:06;;;;;;;38.78;18.52;;;;;;;;;;3365904;42;20092;-62
2022/08/27 04:33:32;;;;;;;39.25;18.48;;;;;;;;;;3367388;42;20648;-61
2022/08/27 04:36:03;;;;;;;35.50;18.83;;;;;;;;;;3366198;42;20626;-61
2022/08/27 04:38:29;;;;;;;35.67;19.83;;;;;;;;;;3367497;42;20075;-62
2022/08/27 04:43:40;;;;;;;38.67;20.20;;;;;;;;;;3367256;42;20102;-62
2022/08/27 04:46:06;;;;;;;35.20;18.02;;;;;;;;;;3367415;42;20219;-63
2022/08/27 04:48:31;;;;;;;32.00;18.33;;;;;;;;;;3367390;42;20474;-62
2022/08/27 04:50:57;;;;;;;31.47;18.70;;;;;;;;;;3367480;42;20126;-61
2022/08/27 04:53:23;;;;;;;31.33;16.50;;;;;;;;;;3366943;42;20143;-62
2022/08/27 04:55:51;;;;;;;32.25;17.75;;;;;;;;;;3367279;42;20127;-62
2022/08/27 04:58:18;;;;;;;29.38;16.08;;;;;;;;;;3365820;42;20571;-60
2022/08/27 05:00:49;;;;;;;29.88;17.33;;;;;;;;;;3367057;42;20106;-60
2022/08/27 05:03:15;;;;;;;33.37;17.13;;;;;;;;;;3366595;42;20580;-61
2022/08/27 05:05:42;;;;;;;29.27;17.60;;;;;;;;;;3364098;42;20096;-61
2022/08/27 05:08:11;;;;;;;28.52;17.08;;;;;;;;;;3367265;42;20100;-63
2022/08/27 05:10:44;;;;;;;29.63;17.33;;;;;;;;;;3365926;42;20135;-61
2022/08/27 05:13:10;;;;;;;30.35;17.02;;;;;;;;;;3367376;42;20083;-61
2022/08/27 05:15:37;;;;;;;28.20;15.90;;;;;;;;;;3366913;42;20087;-61
2022/08/27 05:18:03;;;;;;;33.40;16.33;;;;;;;;;;3362200;42;20162;-61
2022/08/27 05:20:29;;;;;;;25.98;14.43;;;;;;;;;;3367152;42;20154;-60
2022/08/27 05:22:55;;;;;;;24.30;13.50;;;;;;;;;;3365618;42;20104;-61
2022/08/27 05:25:22;;;;;;;22.58;13.80;;;;;;;;;;3365445;42;20783;-63
2022/08/27 05:27:48;;;;;;;26.67;14.23;;;;;;;;;;3366923;42;20098;-62
2022/08/27 05:30:14;;;;;;;21.45;13.55;;;;;;;;;;3367264;42;20080;-61
2022/08/27 05:32:40;;;;;;;26.88;15.10;;;;;;;;;;3365503;42;20559;-61
2022/08/27 05:35:08;;;;;;;24.92;14.48;;;;;;;;;;3363374;42;20178;-61
2022/08/27 05:37:34;;;;;;;26.08;15.23;;;;;;;;;;3362386;42;20122;-64
2022/08/27 05:40:01;;;;;;;26.17;15.17;;;;;;;;;;3362315;42;20620;-62
2022/08/27 05:42:30;;;;;;;28.52;15.90;;;;;;;;;;3366544;42;20804;-62
2022/08/27 05:44:56;;;;;;;27.40;15.35;;;;;;;;;;3365378;42;20159;-62
2022/08/27 05:47:23;;;;;;;28.80;15.65;;;;;;;;;;3366775;42;20549;-61
2022/08/27 05:49:52;;;;;;;24.70;15.68;;;;;;;;;;3366632;42;20080;-61
2022/08/27 05:52:18;;;;;;;27.70;16.17;;;;;;;;;;3366568;42;20091;-64
2022/08/27 05:54:44;;;;;;;26.58;15.73;;;;;;;;;;3365390;42;20100;-61
2022/08/27 05:57:11;;;;;;;25.92;15.77;;;;;;;;;;3367330;42;20092;-63
2022/08/27 06:02:21;;;;;;;31.07;17.50;;;;;;;;;;3364814;42;20159;-64
2022/08/27 06:04:48;;;;;;;30.50;16.60;;;;;;;;;;3361912;42;20187;-62
2022/08/27 06:07:14;;;;;;;30.77;18.50;;;;;;;;;;3361443;42;20100;-62
2022/08/27 06:09:40;;;;;;;30.15;17.10;;;;;;;;;;3361283;42;20224;-63
2022/08/27 06:12:06;;;;;;;27.27;16.23;;;;;;;;;;3361497;42;20084;-62
2022/08/27 06:14:33;;;;;;;26.47;14.93;;;;;;;;;;3356844;42;20139;-62
2022/08/27 06:17:00;;;;;;;26.05;15.70;;;;;;;;;;3365546;42;20099;-61
2022/08/27 06:19:26;;;;;;;26.15;16.30;;;;;;;;;;3365434;42;20094;-63
2022/08/27 06:21:52;;;;;;;25.77;15.65;;;;;;;;;;3366459;42;20159;-61
2022/08/27 06:24:18;;;;;;;27.33;14.90;;;;;;;;;;3366206;42;20092;-60
2022/08/27 06:26:44;;;;;;;28.38;15.55;;;;;;;;;;3364716;42;20084;-61
2022/08/27 06:29:11;;;;;;;25.27;15.68;;;;;;;;;;3365256;42;20163;-60
2022/08/27 06:31:36;;;;;;;24.45;14.73;;;;;;;;;;3365052;42;20095;-63
2022/08/27 06:34:05;;;;;;;21.77;15.03;;;;;;;;;;3365871;42;20072;-62
2022/08/27 06:36:32;;;;;;;23.80;14.73;;;;;;;;;;3364952;42;20283;-61
2022/08/27 06:38:58;;;;;;;22.77;12.80;;;;;;;;;;3366330;42;20108;-63
2022/08/27 06:41:25;;;;;;;20.85;12.63;;;;;;;;;;3366459;42;20083;-61
2022/08/27 06:43:52;;;;;;;18.80;11.30;;;;;;;;;;3364591;42;20524;-60
2022/08/27 06:46:19;;;;;;;16.80;10.18;;;;;;;;;;3366151;42;20847;-61
2022/08/27 06:48:45;;;;;;;17.47;10.73;;;;;;;;;;3364359;42;20098;-61
2022/08/27 06:51:13;;;;;;;16.92;10.90;;;;;;;;;;3365167;42;20157;-61
2022/08/27 06:53:39;;;;;;;18.33;10.85;;;;;;;;;;3364563;42;20083;-62
2022/08/27 06:56:06;;;;;;;18.35;10.25;;;;;;;;;;3366307;42;20626;-62
2022/08/27 06:58:33;;;;;;;16.60;9.70;;;;;;;;;;3366145;42;20593;-61
2022/08/27 07:00:59;;;;;;;19.33;10.43;;;;;;;;;;3365956;42;20493;-62
2022/08/27 07:03:25;;;;;;;20.23;10.10;;;;;;;;;;3364473;42;20098;-61
2022/08/27 07:05:51;;;;;;;17.45;10.00;;;;;;;;;;3361813;42;20150;-61
2022/08/27 07:08:17;;;;;;;18.00;10.20;;;;;;;;;;3365748;42;20138;-62
2022/08/27 07:10:43;;;;;;;17.10;10.57;;;;;;;;;;3366066;42;20100;-61
2022/08/27 07:13:09;;;;;;;19.07;10.67;;;;;;;;;;3359820;42;20076;-60
2022/08/27 07:15:38;;;;;;;17.60;10.65;;;;;;;;;;3365138;42;20157;-61
2022/08/27 07:18:04;;;;;;;17.80;10.15;;;;;;;;;;3366315;42;20131;-61
2022/08/27 07:20:31;;;;;;;20.50;11.40;;;;;;;;;;3366463;42;20203;-62
2022/08/27 07:22:58;;;;;;;20.73;11.02;;;;;;;;;;3365665;42;20099;-61
2022/08/27 07:25:25;;;;;;;18.55;10.73;;;;;;;;;;3366033;42;20140;-61
2022/08/27 07:27:50;;;;;;;18.23;9.93;;;;;;;;;;3365728;42;20198;-62
2022/08/27 07:30:16;;;;;;;21.25;10.55;;;;;;;;;;3365235;42;20799;-60
2022/08/27 07:32:43;;;;;;;18.43;9.83;;;;;;;;;;3363432;42;20088;-61
2022/08/27 07:35:09;;;;;;;21.27;10.43;;;;;;;;;;3365959;42;20534;-60
2022/08/27 07:37:36;;;;;;;17.45;9.95;;;;;;;;;;3363483;42;20088;-60
2022/08/27 07:40:04;;;;;;;17.20;10.30;;;;;;;;;;3361867;42;20098;-61
2022/08/27 07:45:14;;;;;;;16.20;9.47;;;;;;;;;;3365902;42;20107;-62
2022/08/27 07:47:41;;;;;;;17.48;10.07;;;;;;;;;;3366853;42;20182;-61
2022/08/27 07:50:07;;;;;;;19.95;9.57;;;;;;;;;;3365692;42;20091;-61
2022/08/27 07:52:33;;;;;;;15.45;9.63;;;;;;;;;;3365348;42;20640;-58
2022/08/27 07:55:00;;;;;;;15.50;10.00;;;;;;;;;;3365908;42;20544;-62
2022/08/27 07:57:26;;;;;;;16.83;10.03;;;;;;;;;;3365462;42;20149;-61
2022/08/27 07:59:52;;;;;;;14.52;9.40;;;;;;;;;;3364850;42;20144;-61
2022/08/27 08:02:18;;;;;;;13.95;9.13;;;;;;;;;;3365351;42;20092;-61
2022/08/27 08:04:44;;;;;;;16.08;9.23;;;;;;;;;;3365245;42;20178;-60
2022/08/27 08:07:10;;;;;;;19.33;9.10;;;;;;;;;;3366082;42;20114;-60
2022/08/27 08:09:37;;;;;;;14.00;8.65;;;;;;;;;;3360756;42;20139;-60
2022/08/27 08:12:03;;;;;;;17.25;9.18;;;;;;;;;;3359378;42;20084;-61
2022/08/27 08:14:30;;;;;;;13.90;8.60;;;;;;;;;;3365333;42;20084;-60
2022/08/27 08:17:00;;;;;;;16.00;8.63;;;;;;;;;;3364802;42;20096;-60
2022/08/27 08:19:27;;;;;;;16.20;9.00;;;;;;;;;;3364485;42;20158;-60
2022/08/27 08:21:52;;;;;;;16.08;9.40;;;;;;;;;;3363632;42;20542;-60
2022/08/27 08:24:19;;;;;;;20.45;8.88;;;;;;;;;;3364998;42;20559;-61
2022/08/27 08:26:45;;;;;;;16.15;9.05;;;;;;;;;;3363498;42;20146;-60
2022/08/27 08:29:11;;;;;;;15.73;9.17;;;;;;;;;;3365564;42;20091;-61
2022/08/27 08:31:37;;;;;;;15.20;8.65;;;;;;;;;;3363810;42;20471;-61
2022/08/27 08:34:03;;;;;;;14.38;7.80;;;;;;;;;;3362063;42;20176;-60
2022/08/27 08:36:29;;;;;;;13.27;8.13;;;;;;;;;;3362895;42;20080;-59
2022/08/27 08:38:55;;;;;;;14.70;8.23;;;;;;;;;;3363913;42;20107;-62
2022/08/27 08:41:41;;;;;;;16.58;8.25;;;;;;;;;;3366065;42;20095;-62
2022/08/27 08:44:31;;;;;;;14.82;8.43;;;;;;;;;;3362843;42;20104;-60
2022/08/27 08:47:08;;;;;;;17.55;8.90;;;;;;;;;;3359387;42;20084;-62
2022/08/27 08:50:01;;;;;;;15.05;9.10;;;;;;;;;;3359783;42;20096;-62
2022/08/27 08:52:33;;;;;;;16.60;8.70;;;;;;;;;;3361254;42;20096;-61
2022/08/27 08:55:27;;;;;;;14.23;8.30;;;;;;;;;;3362829;42;20544;-62
2022/08/27 08:58:44;;;;;;;18.88;8.50;;;;;;;;;;3360250;42;20598;-60
2022/08/27 09:01:10;;;;;;;16.33;8.85;;;;;;;;;;3344732;42;20136;-59
2022/08/27 09:03:40;;;;;;;69.82;11.02;;;;;;;;;;3357708;42;20096;-60
2022/08/27 09:06:31;;;;;;;16.00;8.83;;;;;;;;;;3360823;42;20099;-60
2022/08/27 09:09:01;;;;;;;16.02;8.35;;;;;;;;;;3359154;42;20100;-60
2022/08/27 09:11:37;;;;;;;16.58;8.88;;;;;;;;;;3361906;42;20601;-61
2022/08/27 09:14:46;;;;;;;17.33;8.50;;;;;;;;;;3360627;42;20202;-60
2022/08/27 09:17:12;;;;;;;15.07;8.55;;;;;;;;;;3358592;42;20096;-60
2022/08/27 09:19:38;;;;;;;18.10;9.17;;;;;;;;;;3360081;42;20174;-61
2022/08/27 09:22:33;;;;;;;14.75;8.77;;;;;;;;;;3363779;42;20127;-60
2022/08/27 09:25:19;;;;;;;13.45;8.55;;;;;;;;;;3359369;42;20084;-59
2022/08/27 09:27:45;;;;;;;14.40;8.82;;;;;;;;;;3361848;42;20160;-62
2022/08/27 09:30:19;;;;;;;14.50;8.98;;;;;;;;;;3360995;42;20096;-60
2022/08/27 09:32:54;;;;;;;15.47;8.60;;;;;;;;;;3366765;42;20088;-61
2022/08/27 09:35:20;;;;;;;13.23;8.73;;;;;;;;;;3362529;42;20129;-61
2022/08/27 09:37:47;;;;;;;12.75;8.57;;;;;;;;;;3361543;42;20088;-61
2022/08/27 09:40:27;;;;;;;13.30;8.52;;;;;;;;;;3360932;42;20185;-61
2022/08/27 09:43:03;;;;;;;15.13;8.60;;;;;;;;;;3361793;42;20263;-59
2022/08/27 09:45:30;;;;;;;17.10;8.40;;;;;;;;;;3360859;42;20186;-60
2022/08/27 09:48:08;;;;;;;17.33;8.20;;;;;;;;;;3358909;42;20108;-60
2022/08/27 09:50:42;;;;;;;16.70;8.02;;;;;;;;;;3361315;42;20134;-61
2022/08/27 09:53:25;;;;;;;17.90;8.55;;;;;;;;;;3362340;42;20139;-61
2022/08/27 09:55:58;;;;;;;16.23;8.32;;;;;;;;;;3359519;42;20578;-60
2022/08/27 09:58:32;;;;;;;14.27;8.00;;;;;;;;;;3360581;42;20143;-61
2022/08/27 10:01:05;;;;;;;13.95;8.10;;;;;;;;;;3360819;42;20087;-61
2022/08/27 10:03:31;;;;;;;12.43;8.20;;;;;;;;;;3362963;42;20108;-61
2022/08/27 10:05:57;;;;;;;12.32;7.75;;;;;;;;;;3360988;42;20110;-60
2022/08/27 10:08:37;;;;;;;14.48;8.13;;;;;;;;;;3362347;42;20111;-61
2022/08/27 10:11:20;;;;;;;11.53;7.90;;;;;;;;;;3363692;42;20106;-60
2022/08/27 10:14:13;;;;;;;14.35;8.35;;;;;;;;;;3360456;42;20586;-60
2022/08/27 10:16:51;;;;;;;14.30;8.52;;;;;;;;;;3366965;42;20569;-61
2022/08/27 10:19:29;;;;;;;16.52;8.05;;;;;;;;;;3359467;42;20094;-62
2022/08/27 10:22:03;;;;;;;13.13;7.75;;;;;;;;;;3363129;42;20114;-61
2022/08/27 10:24:57;;;;;;;12.23;7.60;;;;;;;;;;3359568;42;20143;-59
2022/08/27 10:27:48;;;;;;;14.73;8.05;;;;;;;;;;3360406;42;20080;-59
2022/08/27 10:30:34;;;;;;;14.55;8.25;;;;;;;;;;3362512;42;20620;-59
2022/08/27 10:33:17;;;;;;;16.30;8.77;;;;;;;;;;3360843;42;20092;-60
2022/08/27 10:35:42;;;;;;;16.45;7.75;;;;;;;;;;3350727;42;20088;-61
2022/08/27 10:38:37;;;;;;;15.57;8.03;;;;;;;;;;3361542;42;20134;-59
2022/08/27 10:41:27;;;;;;;13.98;7.95;;;;;;;;;;3364572;42;20163;-60
2022/08/27 10:44:06;;;;;;;13.88;7.50;;;;;;;;;;3361740;42;20114;-61
2022/08/27 10:47:09;;;;;;;13.05;7.53;;;;;;;;;;3362395;42;20084;-61
2022/08/27 10:50:00;;;;;;;12.93;7.30;;;;;;;;;;3345004;42;20080;-61
2022/08/27 10:52:40;;;;;;;12.95;7.30;;;;;;;;;;3359295;42;20143;-59
2022/08/27 10:55:19;;;;;;;12.38;7.47;;;;;;;;;;3358678;42;20130;-60
2022/08/27 10:58:04;;;;;;;12.25;7.68;;;;;;;;;;3362454;42;20103;-61
2022/08/27 11:00:45;;;;;;;12.57;6.93;;;;;;;;;;3360542;42;20107;-61
2022/08/27 11:03:33;;;;;;;13.53;7.03;;;;;;;;;;3360467;42;20092;-60
2022/08/27 11:06:01;;;;;;;12.77;6.63;;;;;;;;;;3362076;42;20087;-61
2022/08/27 11:08:48;;;;;;;10.60;6.93;;;;;;;;;;3354689;42;20139;-60
2022/08/27 11:11:30;;;;;;;13.50;7.03;;;;;;;;;;3363703;42;20916;-61
2022/08/27 11:13:58;;;;;;;14.18;7.55;;;;;;;;;;3362805;42;20126;-60
2022/08/27 11:16:27;;;;;;;12.93;6.97;;;;;;;;;;3362912;42;20104;-62
2022/08/27 11:19:14;;;;;;;14.73;7.90;;;;;;;;;;3360218;42;20092;-60
2022/08/27 11:21:50;;;;;;;10.35;7.20;;;;;;;;;;3364782;42;20131;-59
2022/08/27 11:24:51;;;;;;;12.88;7.30;;;;;;;;;;3358369;42;20167;-61
2022/08/27 11:27:21;;;;;;;13.73;7.40;;;;;;;;;;3332645;42;20169;-61
2022/08/27 11:30:05;;;;;;;15.53;7.77;;;;;;;;;;3351860;42;20193;-63
2022/08/27 11:32:34;;;;;;;11.77;7.47;;;;;;;;;;3359887;42;20607;-61
2022/08/27 11:35:02;;;;;;;14.98;6.80;;;;;;;;;;3369677;42;20592;-62
2022/08/27 11:37:34;;;;;;;12.88;7.25;;;;;;;;;;3361885;42;20147;-62
2022/08/27 11:40:13;;;;;;;15.27;11.18;;;;;;;;;;3359058;42;20103;-62
2022/08/27 11:42:43;;;;;;;13.93;7.60;;;;;;;;;;3364851;42;20100;-61
2022/08/27 11:45:15;;;;;;;12.73;7.50;;;;;;;;;;3363518;42;20093;-59
2022/08/27 11:47:53;;;;;;;11.75;7.60;;;;;;;;;;3360936;42;20095;-60
2022/08/27 11:50:20;;;;;;;14.77;7.88;;;;;;;;;;3361059;42;20104;-59
2022/08/27 11:52:59;;;;;;;13.63;7.20;;;;;;;;;;3355053;42;20613;-61
2022/08/27 11:55:37;;;;;;;14.13;7.40;;;;;;;;;;3360647;42;20155;-60
2022/08/27 11:58:06;;;;;;;13.32;7.97;;;;;;;;;;3360081;42;20134;-60
2022/08/27 12:00:40;;;;;;;12.15;7.50;;;;;;;;;;3360674;42;20099;-60
2022/08/27 12:03:18;;;;;;;12.43;7.90;;;;;;;;;;3362410;42;20200;-60
2022/08/27 12:05:46;;;;;;;14.77;8.25;;;;;;;;;;3358862;42;20148;-61
2022/08/27 12:08:23;;;;;;;14.60;7.70;;;;;;;;;;3359587;42;20169;-62
2022/08/27 12:11:07;;;;;;;16.33;7.68;;;;;;;;;;3357288;42;20103;-61
2022/08/27 12:14:03;;;;;;;15.20;8.07;;;;;;;;;;3360897;42;20160;-60
2022/08/27 12:16:50;;;;;;;18.45;7.85;;;;;;;;;;3360526;42;20159;-61
2022/08/27 12:19:31;;;;;;;15.90;7.80;;;;;;;;;;3360187;42;20096;-60
2022/08/27 12:22:17;;;;;;;12.57;7.33;;;;;;;;;;3361861;42;20131;-60
2022/08/27 12:24:54;;;;;;;11.93;7.25;;;;;;;;;;3359408;42;20660;-61
2022/08/27 12:27:20;;;;;;;15.63;8.25;;;;;;;;;;3364663;42;20150;-60
2022/08/27 12:30:00;;;;;;;13.93;7.80;;;;;;;;;;3365495;42;20103;-61
2022/08/27 12:32:29;;;;;;;14.98;8.40;;;;;;;;;;3365370;42;20095;-60
2022/08/27 12:35:28;;;;;;;12.50;7.40;;;;;;;;;;3364239;42;20099;-60
2022/08/27 12:38:01;;;;;;;15.63;7.38;;;;;;;;;;3365844;42;20103;-60
2022/08/27 12:40:30;;;;;;;14.18;7.70;;;;;;;;;;3364366;42;20107;-60
2022/08/27 12:43:06;;;;;;;13.90;7.57;;;;;;;;;;3364261;42;20103;-61
2022/08/27 12:45:32;;;;;;;12.52;7.38;;;;;;;;;;3365615;42;20570;-61
2022/08/27 12:47:58;;;;;;;15.30;8.37;;;;;;;;;;3366039;42;20104;-60
2022/08/27 12:50:29;;;;;;;16.35;8.55;;;;;;;;;;3367380;42;20115;-61
2022/08/27 12:52:58;;;;;;;15.25;8.25;;;;;;;;;;3356560;42;20192;-61
2022/08/27 12:55:49;;;;;;;15.20;8.48;;;;;;;;;;3359783;42;20532;-61
2022/08/27 12:58:37;;;;;;;17.83;8.67;;;;;;;;;;3360290;42;20118;-62
2022/08/27 13:01:27;;;;;;;16.67;8.95;;;;;;;;;;3367380;42;20103;-60
2022/08/27 13:03:53;;;;;;;17.92;8.50;;;;;;;;;;3367470;42;20496;-60
2022/08/27 13:06:21;;;;;;;16.75;8.30;;;;;;;;;;3366087;42;20510;-60
2022/08/27 13:08:55;;;;;;;17.77;9.18;;;;;;;;;;3358514;42;20099;-61
2022/08/27 13:11:23;;;;;;;15.77;8.63;;;;;;;;;;3365379;42;20094;-60
2022/08/27 13:13:50;;;;;;;17.45;8.70;;;;;;;;;;3363172;42;20106;-60
2022/08/27 13:16:17;;;;;;;24.98;8.43;;;;;;;;;;3358631;42;20084;-60
2022/08/27 13:18:50;;;;;;;14.80;8.05;;;;;;;;;;3363285;42;20521;-60
2022/08/27 13:21:19;;;;;;;14.65;7.95;;;;;;;;;;3364307;42;20084;-62
2022/08/27 13:23:57;;;;;;;13.97;7.57;;;;;;;;;;3362377;42;20577;-61
2022/08/27 13:26:28;;;;;;;13.98;8.15;;;;;;;;;;3357605;42;20160;-61
2022/08/27 13:28:54;;;;;;;16.75;8.38;;;;;;;;;;3356891;42;20099;-61
2022/08/27 13:31:21;;;;;;;13.98;7.85;;;;;;;;;;3356939;42;20175;-61
2022/08/27 13:33:47;;;;;;;15.65;8.70;;;;;;;;;;3357089;42;20158;-61
2022/08/27 13:36:13;;;;;;;19.43;8.43;;;;;;;;;;3360224;42;20139;-62
2022/08/27 13:38:41;;;;;;;17.90;8.57;;;;;;;;;;3362195;42;20096;-61
2022/08/27 13:41:07;;;;;;;17.75;9.48;;;;;;;;;;3361903;42;20718;-61
2022/08/27 13:43:42;;;;;;;19.25;8.32;;;;;;;;;;3360918;42;20087;-61
2022/08/27 13:46:11;;;;;;;19.08;9.60;;;;;;;;;;3351630;42;20606;-61
2022/08/27 13:48:40;;;;;;;18.00;9.10;;;;;;;;;;3357926;42;20144;-60
2022/08/27 13:51:07;;;;;;;29.75;9.18;;;;;;;;;;3359527;42;20080;-59
2022/08/27 13:56:33;;;;;;;18.35;8.75;;;;;;;;;;3365899;42;20172;-61
2022/08/27 13:59:12;;;;;;;14.57;8.80;;;;;;;;;;3366403;42;20143;-60
2022/08/27 14:01:42;;;;;;;13.67;8.10;;;;;;;;;;3367004;42;20110;-61
2022/08/27 14:04:08;;;;;;;14.90;8.77;;;;;;;;;;3366701;42;20096;-61
2022/08/27 14:06:43;;;;;;;17.88;9.27;;;;;;;;;;3366448;42;20181;-61
2022/08/27 14:09:25;;;;;;;15.30;8.90;;;;;;;;;;3357570;42;20601;-60
2022/08/27 14:12:00;;;;;;;16.70;7.85;;;;;;;;;;3366571;42;20087;-60
2022/08/27 14:14:26;;;;;;;15.67;8.13;;;;;;;;;;3365188;42;20096;-61
2022/08/27 14:17:22;;;;;;;17.38;8.23;;;;;;;;;;3364974;42;20223;-61
2022/08/27 14:19:48;;;;;;;14.30;7.63;;;;;;;;;;3362164;42;20076;-60
2022/08/27 14:22:14;;;;;;;15.57;7.75;;;;;;;;;;3366415;42;20106;-60
2022/08/27 14:24:40;;;;;;;16.30;7.90;;;;;;;;;;3366647;42;20087;-60
2022/08/27 14:27:12;;;;;;;17.98;7.47;;;;;;;;;;3366150;42;20080;-61
2022/08/27 14:29:38;;;;;;;13.40;7.53;;;;;;;;;;3365331;42;20131;-61
2022/08/27 14:32:06;;;;;;;15.38;8.18;;;;;;;;;;3364912;42;20561;-59
2022/08/27 14:34:33;;;;;;;18.60;7.90;;;;;;;;;;3366385;42;20107;-60
2022/08/27 14:36:59;;;;;;;16.67;8.80;;;;;;;;;;3366514;42;20152;-59
2022/08/27 14:39:25;;;;;;;16.67;8.20;;;;;;;;;;3366400;42;20102;-59
2022/08/27 14:41:51;;;;;;;13.93;8.07;;;;;;;;;;3366353;42;20076;-60
2022/08/27 14:44:17;;;;;;;17.77;9.27;;;;;;;;;;3365240;42;20098;-60
2022/08/27 14:46:43;;;;;;;16.60;9.40;;;;;;;;;;3364798;42;20100;-61
2022/08/27 14:49:15;;;;;;;22.67;11.95;;;;;;;;;;3364316;42;20598;-55
2022/08/27 14:51:42;;;;;;;16.90;9.30;;;;;;;;;;3363208;42;20174;-54
2022/08/27 14:54:08;;;;;;;19.73;8.27;;;;;;;;;;3364598;42;20106;-57
2022/08/27 14:56:34;;;;;;;21.77;9.15;;;;;;;;;;3365702;42;20106;-55